sensor_id;sensor_type;location;lat;lon;timestamp;P1;durP1;ratioP1;P2;durP2;ratioP2
25758;SDS011;13604;52.496;13.456;2024-01-30T00:01:46;17.65;;;8.30;;
25758;SDS011;13604;52.496;13.456;2024-01-30T00:04:11;16.63;;;8.50;;
25758;SDS011;13604;52.496;13.456;2024-01-30T00:06:36;17.08;;;8.82;;
25758;SDS011;13604;52.496;13.456;2024-01-30T00:09:02;20.00;;;8.73;;
25758;SDS011;13604;52.496;13.456;2024-01-30T00:11:27;18.85;;;8.38;;
25758;SDS011;13604;52.496;13.456;2024-01-30T00:13:53;17.88;;;8.77;;
25758;SDS011;13604;52.496;13.456;2024-01-30T00:16:21;20.13;;;9.35;;
25758;SDS011;13604;52.496;13.456;2024-01-30T00:18:49;21.45;;;10.20;;
25758;SDS011;13604;52.496;13.456;2024-01-30T00:21:17;17.15;;;9.20;;
25758;SDS011;13604;52.496;13.456;2024-01-30T00:23:43;16.45;;;8.70;;
25758;SDS011;13604;52.496;13.456;2024-01-30T00:26:08;22.70;;;9.00;;
25758;SDS011;13604;52.496;13.456;2024-01-30T00:28:33;21.92;;;9.50;;
25758;SDS011;13604;52.496;13.456;2024-01-30T00:30:59;19.67;;;8.57;;
25758;SDS011;13604;52.496;13.456;2024-01-30T00:33:24;23.23;;;9.38;;
25758;SDS011;13604;52.496;13.456;2024-01-30T00:35:49;13.90;;;8.10;;
25758;SDS011;13604;52.496;13.456;2024-01-30T00:38:14;18.13;;;8.93;;
25758;SDS011;13604;52.496;13.456;2024-01-30T00:40:40;18.88;;;8.02;;
25758;SDS011;13604;52.496;13.456;2024-01-30T00:43:05;20.73;;;8.65;;
25758;SDS011;13604;52.496;13.456;2024-01-30T00:45:30;14.25;;;7.72;;
25758;SDS011;13604;52.496;13.456;2024-01-30T00:47:56;20.73;;;9.13;;
25758;SDS011;13604;52.496;13.456;2024-01-30T00:50:21;17.58;;;8.38;;
25758;SDS011;13604;52.496;13.456;2024-01-30T00:52:46;17.10;;;8.00;;
25758;SDS011;13604;52.496;13.456;2024-01-30T00:55:12;18.05;;;8.10;;
25758;SDS011;13604;52.496;13.456;2024-01-30T00:57:37;19.00;;;9.55;;
25758;SDS011;13604;52.496;13.456;2024-01-30T01:00:03;19.20;;;8.68;;
25758;SDS011;13604;52.496;13.456;2024-01-30T01:02:31;17.58;;;8.40;;
25758;SDS011;13604;52.496;13.456;2024-01-30T01:04:56;18.35;;;7.82;;
25758;SDS011;13604;52.496;13.456;2024-01-30T01:07:21;25.02;;;9.65;;
25758;SDS011;13604;52.496;13.456;2024-01-30T01:09:47;20.13;;;8.30;;
25758;SDS011;13604;52.496;13.456;2024-01-30T01:12:12;18.52;;;9.30;;
25758;SDS011;13604;52.496;13.456;2024-01-30T01:14:38;18.95;;;8.35;;
25758;SDS011;13604;52.496;13.456;2024-01-30T01:17:03;22.98;;;9.13;;
25758;SDS011;13604;52.496;13.456;2024-01-30T01:19:29;18.45;;;8.35;;
25758;SDS011;13604;52.496;13.456;2024-01-30T01:21:54;15.18;;;8.05;;
25758;SDS011;13604;52.496;13.456;2024-01-30T01:24:19;18.55;;;9.70;;
25758;SDS011;13604;52.496;13.456;2024-01-30T01:26:44;18.05;;;8.30;;
25758;SDS011;13604;52.496;13.456;2024-01-30T01:29:10;16.73;;;8.30;;
25758;SDS011;13604;52.496;13.456;2024-01-30T01:31:37;17.50;;;8.23;;
25758;SDS011;13604;52.496;13.456;2024-01-30T01:34:10;18.35;;;8.43;;
25758;SDS011;13604;52.496;13.456;2024-01-30T01:36:36;16.90;;;8.30;;
25758;SDS011;13604;52.496;13.456;2024-01-30T01:39:01;17.08;;;8.45;;
25758;SDS011;13604;52.496;13.456;2024-01-30T01:41:31;18.00;;;8.20;;
25758;SDS011;13604;52.496;13.456;2024-01-30T01:43:57;24.90;;;9.27;;
25758;SDS011;13604;52.496;13.456;2024-01-30T01:46:22;18.80;;;9.73;;
25758;SDS011;13604;52.496;13.456;2024-01-30T01:48:48;19.38;;;8.98;;
25758;SDS011;13604;52.496;13.456;2024-01-30T01:51:14;20.30;;;8.65;;
25758;SDS011;13604;52.496;13.456;2024-01-30T01:53:40;24.15;;;10.00;;
25758;SDS011;13604;52.496;13.456;2024-01-30T01:56:06;21.67;;;9.70;;
25758;SDS011;13604;52.496;13.456;2024-01-30T01:58:31;22.08;;;9.50;;
25758;SDS011;13604;52.496;13.456;2024-01-30T02:00:57;22.67;;;9.45;;
25758;SDS011;13604;52.496;13.456;2024-01-30T02:03:24;19.23;;;8.73;;
25758;SDS011;13604;52.496;13.456;2024-01-30T02:05:52;18.70;;;9.18;;
25758;SDS011;13604;52.496;13.456;2024-01-30T02:08:19;17.90;;;8.38;;
25758;SDS011;13604;52.496;13.456;2024-01-30T02:10:45;17.48;;;8.63;;
25758;SDS011;13604;52.496;13.456;2024-01-30T02:13:10;19.15;;;9.20;;
25758;SDS011;13604;52.496;13.456;2024-01-30T02:15:35;19.27;;;9.25;;
25758;SDS011;13604;52.496;13.456;2024-01-30T02:18:01;20.27;;;8.75;;
25758;SDS011;13604;52.496;13.456;2024-01-30T02:20:26;21.02;;;8.85;;
25758;SDS011;13604;52.496;13.456;2024-01-30T02:22:54;21.48;;;9.65;;
25758;SDS011;13604;52.496;13.456;2024-01-30T02:25:29;19.08;;;9.02;;
25758;SDS011;13604;52.496;13.456;2024-01-30T02:28:12;20.25;;;8.52;;
25758;SDS011;13604;52.496;13.456;2024-01-30T02:30:44;18.27;;;8.07;;
25758;SDS011;13604;52.496;13.456;2024-01-30T02:33:10;17.38;;;8.45;;
25758;SDS011;13604;52.496;13.456;2024-01-30T02:35:36;17.95;;;9.15;;
25758;SDS011;13604;52.496;13.456;2024-01-30T02:38:01;23.48;;;9.88;;
25758;SDS011;13604;52.496;13.456;2024-01-30T02:40:26;19.33;;;8.32;;
25758;SDS011;13604;52.496;13.456;2024-01-30T02:42:52;24.35;;;8.68;;
25758;SDS011;13604;52.496;13.456;2024-01-30T02:45:17;20.90;;;9.30;;
25758;SDS011;13604;52.496;13.456;2024-01-30T02:47:43;20.30;;;9.43;;
25758;SDS011;13604;52.496;13.456;2024-01-30T02:50:08;19.90;;;9.25;;
25758;SDS011;13604;52.496;13.456;2024-01-30T02:52:34;19.83;;;9.05;;
25758;SDS011;13604;52.496;13.456;2024-01-30T02:54:59;20.23;;;9.48;;
25758;SDS011;13604;52.496;13.456;2024-01-30T02:57:24;17.45;;;8.77;;
25758;SDS011;13604;52.496;13.456;2024-01-30T02:59:50;20.08;;;8.88;;
25758;SDS011;13604;52.496;13.456;2024-01-30T03:02:15;19.20;;;9.25;;
25758;SDS011;13604;52.496;13.456;2024-01-30T03:04:41;15.13;;;8.65;;
25758;SDS011;13604;52.496;13.456;2024-01-30T03:07:07;24.27;;;9.25;;
25758;SDS011;13604;52.496;13.456;2024-01-30T03:09:32;17.15;;;9.40;;
25758;SDS011;13604;52.496;13.456;2024-01-30T03:11:57;16.98;;;8.50;;
25758;SDS011;13604;52.496;13.456;2024-01-30T03:14:22;21.05;;;9.82;;
25758;SDS011;13604;52.496;13.456;2024-01-30T03:16:48;21.25;;;9.88;;
25758;SDS011;13604;52.496;13.456;2024-01-30T03:19:13;17.70;;;9.00;;
25758;SDS011;13604;52.496;13.456;2024-01-30T03:21:38;21.75;;;9.23;;
25758;SDS011;13604;52.496;13.456;2024-01-30T03:24:04;21.40;;;9.55;;
25758;SDS011;13604;52.496;13.456;2024-01-30T03:26:29;15.35;;;8.20;;
25758;SDS011;13604;52.496;13.456;2024-01-30T03:28:54;16.52;;;8.30;;
25758;SDS011;13604;52.496;13.456;2024-01-30T03:31:20;19.83;;;9.18;;
25758;SDS011;13604;52.496;13.456;2024-01-30T03:33:45;17.92;;;8.95;;
25758;SDS011;13604;52.496;13.456;2024-01-30T03:36:10;20.85;;;9.82;;
25758;SDS011;13604;52.496;13.456;2024-01-30T03:38:36;17.23;;;9.02;;
25758;SDS011;13604;52.496;13.456;2024-01-30T03:41:01;17.02;;;8.63;;
25758;SDS011;13604;52.496;13.456;2024-01-30T03:43:26;19.13;;;9.90;;
25758;SDS011;13604;52.496;13.456;2024-01-30T03:45:52;22.13;;;9.18;;
25758;SDS011;13604;52.496;13.456;2024-01-30T03:48:17;25.20;;;9.93;;
25758;SDS011;13604;52.496;13.456;2024-01-30T03:50:43;25.10;;;10.02;;
25758;SDS011;13604;52.496;13.456;2024-01-30T03:53:08;16.67;;;9.02;;
25758;SDS011;13604;52.496;13.456;2024-01-30T03:55:33;22.55;;;9.80;;
25758;SDS011;13604;52.496;13.456;2024-01-30T03:57:59;19.67;;;9.63;;
25758;SDS011;13604;52.496;13.456;2024-01-30T04:00:25;19.83;;;9.40;;
25758;SDS011;13604;52.496;13.456;2024-01-30T04:02:50;23.48;;;9.75;;
25758;SDS011;13604;52.496;13.456;2024-01-30T04:05:16;21.45;;;10.00;;
25758;SDS011;13604;52.496;13.456;2024-01-30T04:07:41;18.48;;;9.63;;
25758;SDS011;13604;52.496;13.456;2024-01-30T04:10:07;20.80;;;9.88;;
25758;SDS011;13604;52.496;13.456;2024-01-30T04:12:33;16.92;;;8.98;;
25758;SDS011;13604;52.496;13.456;2024-01-30T04:14:58;21.80;;;9.75;;
25758;SDS011;13604;52.496;13.456;2024-01-30T04:17:23;22.17;;;10.05;;
25758;SDS011;13604;52.496;13.456;2024-01-30T04:19:49;20.98;;;9.70;;
25758;SDS011;13604;52.496;13.456;2024-01-30T04:22:14;19.92;;;9.02;;
25758;SDS011;13604;52.496;13.456;2024-01-30T04:24:39;22.65;;;10.02;;
25758;SDS011;13604;52.496;13.456;2024-01-30T04:27:05;25.40;;;10.02;;
25758;SDS011;13604;52.496;13.456;2024-01-30T04:29:30;18.58;;;9.48;;
25758;SDS011;13604;52.496;13.456;2024-01-30T04:31:57;20.63;;;9.68;;
25758;SDS011;13604;52.496;13.456;2024-01-30T04:34:22;22.40;;;10.75;;
25758;SDS011;13604;52.496;13.456;2024-01-30T04:36:47;23.85;;;10.40;;
25758;SDS011;13604;52.496;13.456;2024-01-30T04:39:13;21.67;;;11.27;;
25758;SDS011;13604;52.496;13.456;2024-01-30T04:41:38;22.17;;;9.90;;
25758;SDS011;13604;52.496;13.456;2024-01-30T04:44:03;23.10;;;10.60;;
25758;SDS011;13604;52.496;13.456;2024-01-30T04:46:29;19.15;;;10.27;;
25758;SDS011;13604;52.496;13.456;2024-01-30T04:48:54;25.83;;;10.07;;
25758;SDS011;13604;52.496;13.456;2024-01-30T04:51:19;23.33;;;11.35;;
25758;SDS011;13604;52.496;13.456;2024-01-30T04:53:45;28.70;;;11.82;;
25758;SDS011;13604;52.496;13.456;2024-01-30T04:56:10;26.55;;;11.52;;
25758;SDS011;13604;52.496;13.456;2024-01-30T04:58:35;21.60;;;10.77;;
25758;SDS011;13604;52.496;13.456;2024-01-30T05:01:01;22.63;;;10.48;;
25758;SDS011;13604;52.496;13.456;2024-01-30T05:03:27;18.92;;;9.55;;
25758;SDS011;13604;52.496;13.456;2024-01-30T05:05:52;23.40;;;10.20;;
25758;SDS011;13604;52.496;13.456;2024-01-30T05:08:17;17.98;;;9.88;;
25758;SDS011;13604;52.496;13.456;2024-01-30T05:10:43;21.45;;;11.07;;
25758;SDS011;13604;52.496;13.456;2024-01-30T05:13:08;23.75;;;10.73;;
25758;SDS011;13604;52.496;13.456;2024-01-30T05:15:33;29.27;;;12.20;;
25758;SDS011;13604;52.496;13.456;2024-01-30T05:17:58;24.80;;;10.95;;
25758;SDS011;13604;52.496;13.456;2024-01-30T05:20:24;24.23;;;11.30;;
25758;SDS011;13604;52.496;13.456;2024-01-30T05:22:52;26.80;;;11.30;;
25758;SDS011;13604;52.496;13.456;2024-01-30T05:25:18;27.50;;;12.10;;
25758;SDS011;13604;52.496;13.456;2024-01-30T05:27:44;24.95;;;11.73;;
25758;SDS011;13604;52.496;13.456;2024-01-30T05:30:09;24.38;;;11.20;;
25758;SDS011;13604;52.496;13.456;2024-01-30T05:32:35;21.92;;;10.70;;
25758;SDS011;13604;52.496;13.456;2024-01-30T05:35:00;19.20;;;11.15;;
25758;SDS011;13604;52.496;13.456;2024-01-30T05:37:25;31.42;;;12.13;;
25758;SDS011;13604;52.496;13.456;2024-01-30T05:39:51;25.98;;;10.68;;
25758;SDS011;13604;52.496;13.456;2024-01-30T05:42:16;22.98;;;11.32;;
25758;SDS011;13604;52.496;13.456;2024-01-30T05:44:42;34.40;;;12.45;;
25758;SDS011;13604;52.496;13.456;2024-01-30T05:47:07;26.25;;;11.85;;
25758;SDS011;13604;52.496;13.456;2024-01-30T05:49:32;20.92;;;10.85;;
25758;SDS011;13604;52.496;13.456;2024-01-30T05:51:58;25.52;;;11.60;;
25758;SDS011;13604;52.496;13.456;2024-01-30T05:54:23;22.17;;;11.55;;
25758;SDS011;13604;52.496;13.456;2024-01-30T05:56:48;27.75;;;12.20;;
25758;SDS011;13604;52.496;13.456;2024-01-30T05:59:13;26.15;;;12.32;;
25758;SDS011;13604;52.496;13.456;2024-01-30T06:01:45;27.63;;;12.73;;
25758;SDS011;13604;52.496;13.456;2024-01-30T06:04:13;25.60;;;12.20;;
25758;SDS011;13604;52.496;13.456;2024-01-30T06:06:39;28.38;;;12.55;;
25758;SDS011;13604;52.496;13.456;2024-01-30T06:09:05;24.35;;;12.38;;
25758;SDS011;13604;52.496;13.456;2024-01-30T06:11:30;24.40;;;11.80;;
25758;SDS011;13604;52.496;13.456;2024-01-30T06:13:56;26.45;;;12.85;;
25758;SDS011;13604;52.496;13.456;2024-01-30T06:16:21;25.85;;;11.93;;
25758;SDS011;13604;52.496;13.456;2024-01-30T06:18:47;24.00;;;12.25;;
25758;SDS011;13604;52.496;13.456;2024-01-30T06:21:13;22.02;;;12.38;;
25758;SDS011;13604;52.496;13.456;2024-01-30T06:23:38;24.13;;;12.30;;
25758;SDS011;13604;52.496;13.456;2024-01-30T06:26:03;24.02;;;11.63;;
25758;SDS011;13604;52.496;13.456;2024-01-30T06:28:30;23.48;;;11.48;;
25758;SDS011;13604;52.496;13.456;2024-01-30T06:30:55;23.17;;;11.85;;
25758;SDS011;13604;52.496;13.456;2024-01-30T06:33:20;27.65;;;12.13;;
25758;SDS011;13604;52.496;13.456;2024-01-30T06:35:46;27.77;;;11.95;;
25758;SDS011;13604;52.496;13.456;2024-01-30T06:38:11;26.42;;;12.50;;
25758;SDS011;13604;52.496;13.456;2024-01-30T06:40:36;27.50;;;12.10;;
25758;SDS011;13604;52.496;13.456;2024-01-30T06:43:02;28.10;;;12.02;;
25758;SDS011;13604;52.496;13.456;2024-01-30T06:45:29;27.98;;;11.75;;
25758;SDS011;13604;52.496;13.456;2024-01-30T06:47:54;24.58;;;11.30;;
25758;SDS011;13604;52.496;13.456;2024-01-30T06:50:19;23.90;;;11.48;;
25758;SDS011;13604;52.496;13.456;2024-01-30T06:52:45;25.00;;;12.32;;
25758;SDS011;13604;52.496;13.456;2024-01-30T06:55:10;32.20;;;12.63;;
25758;SDS011;13604;52.496;13.456;2024-01-30T06:57:36;26.17;;;11.65;;
25758;SDS011;13604;52.496;13.456;2024-01-30T07:00:01;27.80;;;11.55;;
25758;SDS011;13604;52.496;13.456;2024-01-30T07:02:27;26.40;;;11.80;;
25758;SDS011;13604;52.496;13.456;2024-01-30T07:04:52;29.67;;;11.80;;
25758;SDS011;13604;52.496;13.456;2024-01-30T07:07:21;28.08;;;11.93;;
25758;SDS011;13604;52.496;13.456;2024-01-30T07:09:46;25.88;;;11.32;;
25758;SDS011;13604;52.496;13.456;2024-01-30T07:12:14;33.47;;;13.75;;
25758;SDS011;13604;52.496;13.456;2024-01-30T07:14:39;23.70;;;11.55;;
25758;SDS011;13604;52.496;13.456;2024-01-30T07:17:05;26.25;;;12.75;;
25758;SDS011;13604;52.496;13.456;2024-01-30T07:19:31;30.92;;;13.30;;
25758;SDS011;13604;52.496;13.456;2024-01-30T07:21:56;30.15;;;13.30;;
25758;SDS011;13604;52.496;13.456;2024-01-30T07:24:21;23.70;;;11.80;;
25758;SDS011;13604;52.496;13.456;2024-01-30T07:26:47;30.05;;;12.75;;
25758;SDS011;13604;52.496;13.456;2024-01-30T07:29:12;33.65;;;12.90;;
25758;SDS011;13604;52.496;13.456;2024-01-30T07:31:38;28.90;;;12.18;;
25758;SDS011;13604;52.496;13.456;2024-01-30T07:34:03;30.90;;;13.50;;
25758;SDS011;13604;52.496;13.456;2024-01-30T07:36:28;24.23;;;11.93;;
25758;SDS011;13604;52.496;13.456;2024-01-30T07:38:54;24.05;;;11.73;;
25758;SDS011;13604;52.496;13.456;2024-01-30T07:41:22;23.42;;;12.43;;
25758;SDS011;13604;52.496;13.456;2024-01-30T07:43:50;25.95;;;12.40;;
25758;SDS011;13604;52.496;13.456;2024-01-30T07:46:15;30.38;;;12.23;;
25758;SDS011;13604;52.496;13.456;2024-01-30T07:48:40;28.63;;;12.02;;
25758;SDS011;13604;52.496;13.456;2024-01-30T07:51:06;27.08;;;11.63;;
25758;SDS011;13604;52.496;13.456;2024-01-30T07:53:31;31.80;;;12.93;;
25758;SDS011;13604;52.496;13.456;2024-01-30T07:55:56;27.88;;;12.88;;
25758;SDS011;13604;52.496;13.456;2024-01-30T07:58:21;30.45;;;13.00;;
25758;SDS011;13604;52.496;13.456;2024-01-30T08:00:48;31.48;;;13.45;;
25758;SDS011;13604;52.496;13.456;2024-01-30T08:03:14;23.90;;;11.88;;
25758;SDS011;13604;52.496;13.456;2024-01-30T08:05:44;26.50;;;13.02;;
25758;SDS011;13604;52.496;13.456;2024-01-30T08:08:09;30.83;;;13.88;;
25758;SDS011;13604;52.496;13.456;2024-01-30T08:10:34;31.75;;;12.85;;
25758;SDS011;13604;52.496;13.456;2024-01-30T08:12:59;29.85;;;12.32;;
25758;SDS011;13604;52.496;13.456;2024-01-30T08:15:25;24.45;;;12.13;;
25758;SDS011;13604;52.496;13.456;2024-01-30T08:17:50;26.30;;;11.68;;
25758;SDS011;13604;52.496;13.456;2024-01-30T08:20:24;23.08;;;11.48;;
25758;SDS011;13604;52.496;13.456;2024-01-30T08:22:49;24.20;;;11.35;;
25758;SDS011;13604;52.496;13.456;2024-01-30T08:25:15;24.45;;;11.30;;
25758;SDS011;13604;52.496;13.456;2024-01-30T08:27:40;30.25;;;12.77;;
25758;SDS011;13604;52.496;13.456;2024-01-30T08:30:06;28.65;;;11.38;;
25758;SDS011;13604;52.496;13.456;2024-01-30T08:32:32;20.50;;;10.63;;
25758;SDS011;13604;52.496;13.456;2024-01-30T08:34:57;21.90;;;10.18;;
25758;SDS011;13604;52.496;13.456;2024-01-30T08:37:23;21.55;;;11.38;;
25758;SDS011;13604;52.496;13.456;2024-01-30T08:39:48;21.50;;;10.88;;
25758;SDS011;13604;52.496;13.456;2024-01-30T08:42:13;19.27;;;11.23;;
25758;SDS011;13604;52.496;13.456;2024-01-30T08:44:39;23.08;;;11.20;;
25758;SDS011;13604;52.496;13.456;2024-01-30T08:47:04;20.25;;;11.18;;
25758;SDS011;13604;52.496;13.456;2024-01-30T08:49:30;29.67;;;11.65;;
25758;SDS011;13604;52.496;13.456;2024-01-30T08:51:55;28.33;;;11.75;;
25758;SDS011;13604;52.496;13.456;2024-01-30T08:54:20;21.75;;;11.60;;
25758;SDS011;13604;52.496;13.456;2024-01-30T08:56:46;17.15;;;9.15;;
25758;SDS011;13604;52.496;13.456;2024-01-30T08:59:11;20.52;;;10.75;;
25758;SDS011;13604;52.496;13.456;2024-01-30T09:01:37;22.20;;;10.80;;
25758;SDS011;13604;52.496;13.456;2024-01-30T09:04:02;19.65;;;11.10;;
25758;SDS011;13604;52.496;13.456;2024-01-30T09:06:27;23.17;;;11.02;;
25758;SDS011;13604;52.496;13.456;2024-01-30T09:08:53;23.15;;;11.50;;
25758;SDS011;13604;52.496;13.456;2024-01-30T09:11:19;22.88;;;11.20;;
25758;SDS011;13604;52.496;13.456;2024-01-30T09:13:44;21.42;;;10.55;;
25758;SDS011;13604;52.496;13.456;2024-01-30T09:16:09;19.35;;;11.13;;
25758;SDS011;13604;52.496;13.456;2024-01-30T09:18:35;23.58;;;11.15;;
25758;SDS011;13604;52.496;13.456;2024-01-30T09:21:00;17.95;;;9.18;;
25758;SDS011;13604;52.496;13.456;2024-01-30T09:23:27;23.58;;;10.75;;
25758;SDS011;13604;52.496;13.456;2024-01-30T09:25:52;20.20;;;9.95;;
25758;SDS011;13604;52.496;13.456;2024-01-30T09:28:18;23.70;;;9.77;;
25758;SDS011;13604;52.496;13.456;2024-01-30T09:30:43;21.80;;;9.77;;
25758;SDS011;13604;52.496;13.456;2024-01-30T09:33:08;26.67;;;10.80;;
25758;SDS011;13604;52.496;13.456;2024-01-30T09:35:34;22.45;;;9.93;;
25758;SDS011;13604;52.496;13.456;2024-01-30T09:38:01;22.13;;;9.70;;
25758;SDS011;13604;52.496;13.456;2024-01-30T09:40:26;18.08;;;8.88;;
25758;SDS011;13604;52.496;13.456;2024-01-30T09:42:52;21.30;;;10.27;;
25758;SDS011;13604;52.496;13.456;2024-01-30T09:45:18;26.17;;;9.98;;
25758;SDS011;13604;52.496;13.456;2024-01-30T09:47:44;26.05;;;10.45;;
25758;SDS011;13604;52.496;13.456;2024-01-30T09:50:11;17.55;;;9.10;;
25758;SDS011;13604;52.496;13.456;2024-01-30T09:52:37;23.30;;;8.90;;
25758;SDS011;13604;52.496;13.456;2024-01-30T09:55:03;19.23;;;8.70;;
25758;SDS011;13604;52.496;13.456;2024-01-30T09:57:29;17.08;;;8.60;;
25758;SDS011;13604;52.496;13.456;2024-01-30T09:59:54;19.77;;;9.30;;
25758;SDS011;13604;52.496;13.456;2024-01-30T10:02:20;15.68;;;8.70;;
25758;SDS011;13604;52.496;13.456;2024-01-30T10:04:49;21.00;;;9.02;;
25758;SDS011;13604;52.496;13.456;2024-01-30T10:07:16;20.70;;;9.75;;
25758;SDS011;13604;52.496;13.456;2024-01-30T10:09:44;18.65;;;10.15;;
25758;SDS011;13604;52.496;13.456;2024-01-30T10:12:09;14.48;;;8.48;;
25758;SDS011;13604;52.496;13.456;2024-01-30T10:14:38;20.73;;;9.45;;
25758;SDS011;13604;52.496;13.456;2024-01-30T10:17:04;23.33;;;9.63;;
25758;SDS011;13604;52.496;13.456;2024-01-30T10:19:30;23.95;;;9.88;;
25758;SDS011;13604;52.496;13.456;2024-01-30T10:21:56;20.85;;;8.98;;
25758;SDS011;13604;52.496;13.456;2024-01-30T10:24:24;28.45;;;9.70;;
25758;SDS011;13604;52.496;13.456;2024-01-30T10:26:50;23.70;;;8.98;;
25758;SDS011;13604;52.496;13.456;2024-01-30T10:29:16;24.05;;;8.18;;
25758;SDS011;13604;52.496;13.456;2024-01-30T10:31:42;32.47;;;8.77;;
25758;SDS011;13604;52.496;13.456;2024-01-30T10:34:07;29.60;;;9.20;;
25758;SDS011;13604;52.496;13.456;2024-01-30T10:36:33;20.48;;;8.60;;
25758;SDS011;13604;52.496;13.456;2024-01-30T10:39:05;23.90;;;8.38;;
25758;SDS011;13604;52.496;13.456;2024-01-30T10:41:31;23.35;;;8.35;;
25758;SDS011;13604;52.496;13.456;2024-01-30T10:44:09;18.50;;;8.70;;
25758;SDS011;13604;52.496;13.456;2024-01-30T10:46:35;18.25;;;8.75;;
25758;SDS011;13604;52.496;13.456;2024-01-30T10:49:03;18.77;;;8.35;;
25758;SDS011;13604;52.496;13.456;2024-01-30T10:51:29;18.67;;;8.45;;
25758;SDS011;13604;52.496;13.456;2024-01-30T10:53:56;13.35;;;7.20;;
25758;SDS011;13604;52.496;13.456;2024-01-30T10:56:21;17.67;;;7.22;;
25758;SDS011;13604;52.496;13.456;2024-01-30T10:58:49;15.05;;;8.18;;
25758;SDS011;13604;52.496;13.456;2024-01-30T11:01:16;14.68;;;7.35;;
25758;SDS011;13604;52.496;13.456;2024-01-30T11:03:42;14.30;;;8.20;;
25758;SDS011;13604;52.496;13.456;2024-01-30T11:06:10;13.77;;;6.80;;
25758;SDS011;13604;52.496;13.456;2024-01-30T11:08:37;15.43;;;7.72;;
25758;SDS011;13604;52.496;13.456;2024-01-30T11:11:02;14.95;;;7.72;;
25758;SDS011;13604;52.496;13.456;2024-01-30T11:13:34;14.85;;;7.47;;
25758;SDS011;13604;52.496;13.456;2024-01-30T11:16:00;18.50;;;8.25;;
25758;SDS011;13604;52.496;13.456;2024-01-30T11:18:28;18.30;;;7.15;;
25758;SDS011;13604;52.496;13.456;2024-01-30T11:20:58;15.95;;;7.38;;
25758;SDS011;13604;52.496;13.456;2024-01-30T11:23:27;12.90;;;7.07;;
25758;SDS011;13604;52.496;13.456;2024-01-30T11:25:53;15.85;;;7.38;;
25758;SDS011;13604;52.496;13.456;2024-01-30T11:28:19;14.20;;;7.28;;
25758;SDS011;13604;52.496;13.456;2024-01-30T11:30:46;14.93;;;7.45;;
25758;SDS011;13604;52.496;13.456;2024-01-30T11:33:12;15.98;;;7.75;;
25758;SDS011;13604;52.496;13.456;2024-01-30T11:35:39;20.63;;;7.90;;
25758;SDS011;13604;52.496;13.456;2024-01-30T11:38:05;13.15;;;7.38;;
25758;SDS011;13604;52.496;13.456;2024-01-30T11:40:32;17.42;;;8.07;;
25758;SDS011;13604;52.496;13.456;2024-01-30T11:42:59;16.90;;;7.47;;
25758;SDS011;13604;52.496;13.456;2024-01-30T11:45:26;13.90;;;7.10;;
25758;SDS011;13604;52.496;13.456;2024-01-30T11:47:52;20.15;;;7.43;;
25758;SDS011;13604;52.496;13.456;2024-01-30T11:50:18;14.60;;;7.95;;
25758;SDS011;13604;52.496;13.456;2024-01-30T11:52:43;14.13;;;7.85;;
25758;SDS011;13604;52.496;13.456;2024-01-30T11:55:09;14.57;;;7.35;;
25758;SDS011;13604;52.496;13.456;2024-01-30T11:57:35;16.08;;;7.57;;
25758;SDS011;13604;52.496;13.456;2024-01-30T12:00:01;17.63;;;8.35;;
25758;SDS011;13604;52.496;13.456;2024-01-30T12:02:35;12.80;;;7.10;;
25758;SDS011;13604;52.496;13.456;2024-01-30T12:05:04;17.73;;;7.93;;
25758;SDS011;13604;52.496;13.456;2024-01-30T12:07:30;12.85;;;7.50;;
25758;SDS011;13604;52.496;13.456;2024-01-30T12:09:56;16.30;;;8.07;;
25758;SDS011;13604;52.496;13.456;2024-01-30T12:12:25;19.15;;;7.70;;
25758;SDS011;13604;52.496;13.456;2024-01-30T12:14:51;11.65;;;6.70;;
25758;SDS011;13604;52.496;13.456;2024-01-30T12:17:29;14.10;;;7.32;;
25758;SDS011;13604;52.496;13.456;2024-01-30T12:22:33;17.02;;;8.00;;
25758;SDS011;13604;52.496;13.456;2024-01-30T12:25:04;16.20;;;8.00;;
25758;SDS011;13604;52.496;13.456;2024-01-30T12:27:30;12.70;;;7.47;;
25758;SDS011;13604;52.496;13.456;2024-01-30T12:29:56;18.77;;;7.82;;
25758;SDS011;13604;52.496;13.456;2024-01-30T12:32:23;15.35;;;8.02;;
25758;SDS011;13604;52.496;13.456;2024-01-30T12:34:48;11.98;;;7.22;;
25758;SDS011;13604;52.496;13.456;2024-01-30T12:37:13;14.43;;;8.50;;
25758;SDS011;13604;52.496;13.456;2024-01-30T12:39:39;14.52;;;8.07;;
25758;SDS011;13604;52.496;13.456;2024-01-30T12:42:05;16.15;;;7.47;;
25758;SDS011;13604;52.496;13.456;2024-01-30T12:44:30;18.10;;;8.75;;
25758;SDS011;13604;52.496;13.456;2024-01-30T12:46:56;14.23;;;7.43;;
25758;SDS011;13604;52.496;13.456;2024-01-30T12:49:21;21.42;;;7.90;;
25758;SDS011;13604;52.496;13.456;2024-01-30T12:51:46;16.83;;;7.65;;
25758;SDS011;13604;52.496;13.456;2024-01-30T12:54:12;16.38;;;8.18;;
25758;SDS011;13604;52.496;13.456;2024-01-30T12:56:38;13.30;;;7.55;;
25758;SDS011;13604;52.496;13.456;2024-01-30T12:59:03;15.55;;;7.38;;
25758;SDS011;13604;52.496;13.456;2024-01-30T13:01:28;15.18;;;7.47;;
25758;SDS011;13604;52.496;13.456;2024-01-30T13:03:54;17.42;;;7.88;;
25758;SDS011;13604;52.496;13.456;2024-01-30T13:06:19;12.65;;;7.30;;
25758;SDS011;13604;52.496;13.456;2024-01-30T13:08:45;17.23;;;7.78;;
25758;SDS011;13604;52.496;13.456;2024-01-30T13:11:10;15.00;;;7.70;;
25758;SDS011;13604;52.496;13.456;2024-01-30T13:13:37;16.63;;;7.88;;
25758;SDS011;13604;52.496;13.456;2024-01-30T13:16:02;16.60;;;7.68;;
25758;SDS011;13604;52.496;13.456;2024-01-30T13:18:29;18.98;;;7.63;;
25758;SDS011;13604;52.496;13.456;2024-01-30T13:20:54;15.95;;;7.88;;
25758;SDS011;13604;52.496;13.456;2024-01-30T13:23:19;17.88;;;8.10;;
25758;SDS011;13604;52.496;13.456;2024-01-30T13:25:45;18.00;;;6.90;;
25758;SDS011;13604;52.496;13.456;2024-01-30T13:28:10;14.88;;;7.72;;
25758;SDS011;13604;52.496;13.456;2024-01-30T13:30:35;14.90;;;7.55;;
25758;SDS011;13604;52.496;13.456;2024-01-30T13:33:01;13.05;;;7.68;;
25758;SDS011;13604;52.496;13.456;2024-01-30T13:35:27;15.48;;;7.28;;
25758;SDS011;13604;52.496;13.456;2024-01-30T13:37:53;16.77;;;7.72;;
25758;SDS011;13604;52.496;13.456;2024-01-30T13:40:18;17.80;;;7.60;;
25758;SDS011;13604;52.496;13.456;2024-01-30T13:42:43;16.40;;;7.25;;
25758;SDS011;13604;52.496;13.456;2024-01-30T13:45:09;15.07;;;7.38;;
25758;SDS011;13604;52.496;13.456;2024-01-30T13:47:35;17.42;;;7.55;;
25758;SDS011;13604;52.496;13.456;2024-01-30T13:50:00;13.93;;;7.35;;
25758;SDS011;13604;52.496;13.456;2024-01-30T13:52:25;13.80;;;7.07;;
25758;SDS011;13604;52.496;13.456;2024-01-30T13:54:52;16.65;;;7.55;;
25758;SDS011;13604;52.496;13.456;2024-01-30T13:57:17;12.65;;;7.13;;
25758;SDS011;13604;52.496;13.456;2024-01-30T13:59:42;16.83;;;7.55;;
25758;SDS011;13604;52.496;13.456;2024-01-30T14:02:07;14.88;;;6.78;;
25758;SDS011;13604;52.496;13.456;2024-01-30T14:04:35;19.55;;;8.23;;
25758;SDS011;13604;52.496;13.456;2024-01-30T14:07:02;18.45;;;7.75;;
25758;SDS011;13604;52.496;13.456;2024-01-30T14:09:27;14.55;;;7.25;;
25758;SDS011;13604;52.496;13.456;2024-01-30T14:11:53;14.05;;;8.25;;